sensor_id;sensor_type;location;lat;lon;timestamp;pressure;altitude;pressure_sealevel;temperature;humidity
76994;BME280;66749;47.406;18.822;2023-03-01T00:00:06;101460.66;;;5.24;66.00
76994;BME280;66749;47.406;18.822;2023-03-01T00:00:38;101454.63;;;5.23;65.39
76994;BME280;66749;47.406;18.822;2023-03-01T00:01:18;101458.97;;;5.23;65.47
76994;BME280;66749;47.406;18.822;2023-03-01T00:01:50;101457.25;;;5.22;65.47
76994;BME280;66749;47.406;18.822;2023-03-01T00:02:22;101463.28;;;5.22;65.64
76994;BME280;66749;47.406;18.822;2023-03-01T00:02:54;101465.00;;;5.22;65.69
76994;BME280;66749;47.406;18.822;2023-03-01T00:03:26;101458.09;;;5.21;65.49
76994;BME280;66749;47.406;18.822;2023-03-01T00:03:59;101462.44;;;5.22;65.20
76994;BME280;66749;47.406;18.822;2023-03-01T00:04:31;101462.44;;;5.22;65.84
76994;BME280;66749;47.406;18.822;2023-03-01T00:05:03;101465.88;;;5.22;65.54
76994;BME280;66749;47.406;18.822;2023-03-01T00:05:35;101465.00;;;5.20;65.46
76994;BME280;66749;47.406;18.822;2023-03-01T00:06:07;101460.75;;;5.18;65.78
76994;BME280;66749;47.406;18.822;2023-03-01T00:06:40;101459.13;;;5.12;65.95
76994;BME280;66749;47.406;18.822;2023-03-01T00:07:13;101466.81;;;5.17;65.48
76994;BME280;66749;47.406;18.822;2023-03-01T00:07:44;101465.94;;;5.18;65.94
76994;BME280;66749;47.406;18.822;2023-03-01T00:08:16;101461.56;;;5.20;65.86
76994;BME280;66749;47.406;18.822;2023-03-01T00:08:48;101465.00;;;5.20;65.88
76994;BME280;66749;47.406;18.822;2023-03-01T00:09:20;101465.88;;;5.21;65.32
76994;BME280;66749;47.406;18.822;2023-03-01T00:09:52;101474.47;;;5.23;65.07
76994;BME280;66749;47.406;18.822;2023-03-01T00:10:24;101467.56;;;5.23;65.15
76994;BME280;66749;47.406;18.822;2023-03-01T00:11:06;101467.59;;;5.22;65.54
76994;BME280;66749;47.406;18.822;2023-03-01T00:11:38;101465.00;;;5.22;65.91
76994;BME280;66749;47.406;18.822;2023-03-01T00:12:10;101469.25;;;5.26;66.59
76994;BME280;66749;47.406;18.822;2023-03-01T00:12:42;101462.38;;;5.25;66.55
76994;BME280;66749;47.406;18.822;2023-03-01T00:13:14;101463.22;;;5.25;66.99
76994;BME280;66749;47.406;18.822;2023-03-01T00:13:48;101463.22;;;5.25;67.53
76994;BME280;66749;47.406;18.822;2023-03-01T00:14:20;101467.47;;;5.28;67.16
76994;BME280;66749;47.406;18.822;2023-03-01T00:14:52;101464.88;;;5.28;66.53
76994;BME280;66749;47.406;18.822;2023-03-01T00:15:23;101466.63;;;5.27;66.42
76994;BME280;66749;47.406;18.822;2023-03-01T00:15:55;101470.06;;;5.28;66.44
76994;BME280;66749;47.406;18.822;2023-03-01T00:16:41;101467.47;;;5.28;66.52
76994;BME280;66749;47.406;18.822;2023-03-01T00:17:14;101470.91;;;5.30;66.86
76994;BME280;66749;47.406;18.822;2023-03-01T00:17:45;101465.75;;;5.30;66.78
76994;BME280;66749;47.406;18.822;2023-03-01T00:18:17;101464.03;;;5.29;66.23
76994;BME280;66749;47.406;18.822;2023-03-01T00:18:49;101467.47;;;5.28;65.95
76994;BME280;66749;47.406;18.822;2023-03-01T00:19:22;101468.31;;;5.30;66.36
76994;BME280;66749;47.406;18.822;2023-03-01T00:19:53;101463.16;;;5.30;66.81
76994;BME280;66749;47.406;18.822;2023-03-01T00:20:25;101470.88;;;5.32;66.40
76994;BME280;66749;47.406;18.822;2023-03-01T00:20:57;101470.03;;;5.31;66.73
76994;BME280;66749;47.406;18.822;2023-03-01T00:21:28;101465.75;;;5.30;66.24
76994;BME280;66749;47.406;18.822;2023-03-01T00:22:00;101466.63;;;5.29;65.93
76994;BME280;66749;47.406;18.822;2023-03-01T00:22:32;101470.91;;;5.30;65.73
76994;BME280;66749;47.406;18.822;2023-03-01T00:23:03;101468.31;;;5.28;66.60
76994;BME280;66749;47.406;18.822;2023-03-01T00:23:35;101474.38;;;5.27;66.13
76994;BME280;66749;47.406;18.822;2023-03-01T00:24:08;101478.69;;;5.28;66.72
76994;BME280;66749;47.406;18.822;2023-03-01T00:24:39;101469.22;;;5.29;66.63
76994;BME280;66749;47.406;18.822;2023-03-01T00:25:11;101471.78;;;5.29;66.27
76994;BME280;66749;47.406;18.822;2023-03-01T00:25:43;101470.91;;;5.30;65.86
76994;BME280;66749;47.406;18.822;2023-03-01T00:26:16;101482.16;;;5.29;66.08
76994;BME280;66749;47.406;18.822;2023-03-01T00:26:52;101475.25;;;5.28;65.70
76994;BME280;66749;47.406;18.822;2023-03-01T00:27:24;101471.78;;;5.27;66.64
76994;BME280;66749;47.406;18.822;2023-03-01T00:27:56;101466.63;;;5.29;66.65
76994;BME280;66749;47.406;18.822;2023-03-01T00:28:27;101470.94;;;5.27;65.62
76994;BME280;66749;47.406;18.822;2023-03-01T00:28:59;101479.59;;;5.26;66.68
76994;BME280;66749;47.406;18.822;2023-03-01T00:29:31;101477.81;;;5.28;66.18
76994;BME280;66749;47.406;18.822;2023-03-01T00:30:04;101481.25;;;5.28;66.63
76994;BME280;66749;47.406;18.822;2023-03-01T00:30:36;101481.25;;;5.28;66.48
76994;BME280;66749;47.406;18.822;2023-03-01T00:31:19;101479.53;;;5.31;66.89
76994;BME280;66749;47.406;18.822;2023-03-01T00:31:51;101477.78;;;5.31;66.74
76994;BME280;66749;47.406;18.822;2023-03-01T00:32:23;101482.97;;;5.31;65.62
76994;BME280;66749;47.406;18.822;2023-03-01T00:32:55;101479.50;;;5.32;65.29
76994;BME280;66749;47.406;18.822;2023-03-01T00:33:26;101477.75;;;5.33;65.75
76994;BME280;66749;47.406;18.822;2023-03-01T00:34:01;101473.44;;;5.33;66.20
76994;BME280;66749;47.406;18.822;2023-03-01T00:34:33;101472.56;;;5.34;66.34
76994;BME280;66749;47.406;18.822;2023-03-01T00:35:04;101475.97;;;5.38;66.32
76994;BME280;66749;47.406;18.822;2023-03-01T00:35:37;101478.53;;;5.36;66.47
76994;BME280;66749;47.406;18.822;2023-03-01T00:36:10;101475.09;;;5.36;66.61
76994;BME280;66749;47.406;18.822;2023-03-01T00:36:43;101474.25;;;5.35;66.72
76994;BME280;66749;47.406;18.822;2023-03-01T00:37:14;101474.28;;;5.34;67.47
76994;BME280;66749;47.406;18.822;2023-03-01T00:37:46;101476.88;;;5.34;67.17
76994;BME280;66749;47.406;18.822;2023-03-01T00:38:18;101471.69;;;5.34;67.31
76994;BME280;66749;47.406;18.822;2023-03-01T00:38:49;101476.00;;;5.35;67.84
76994;BME280;66749;47.406;18.822;2023-03-01T00:39:21;101470.84;;;5.33;68.25
76994;BME280;66749;47.406;18.822;2023-03-01T00:39:53;101481.19;;;5.33;67.80
76994;BME280;66749;47.406;18.822;2023-03-01T00:40:26;101473.44;;;5.33;68.50
76994;BME280;66749;47.406;18.822;2023-03-01T00:41:03;101476.88;;;5.34;68.72
76994;BME280;66749;47.406;18.822;2023-03-01T00:41:35;101472.56;;;5.34;68.66
76994;BME280;66749;47.406;18.822;2023-03-01T00:42:07;101472.56;;;5.34;68.67
76994;BME280;66749;47.406;18.822;2023-03-01T00:42:39;101476.88;;;5.34;68.41
76994;BME280;66749;47.406;18.822;2023-03-01T00:43:10;101476.00;;;5.35;67.70
76994;BME280;66749;47.406;18.822;2023-03-01T00:43:43;101469.09;;;5.35;68.47
76994;BME280;66749;47.406;18.822;2023-03-01T00:44:15;101463.09;;;5.33;67.98
76994;BME280;66749;47.406;18.822;2023-03-01T00:44:47;101461.34;;;5.34;68.32
76994;BME280;66749;47.406;18.822;2023-03-01T00:45:19;101468.22;;;5.35;68.60
76994;BME280;66749;47.406;18.822;2023-03-01T00:45:51;101467.38;;;5.34;68.59
76994;BME280;66749;47.406;18.822;2023-03-01T00:46:25;101469.16;;;5.32;69.15
76994;BME280;66749;47.406;18.822;2023-03-01T00:46:57;101461.41;;;5.31;69.18
76994;BME280;66749;47.406;18.822;2023-03-01T00:47:29;101458.81;;;5.31;69.89
76994;BME280;66749;47.406;18.822;2023-03-01T00:48:00;101457.97;;;5.30;69.88
76994;BME280;66749;47.406;18.822;2023-03-01T00:48:33;101464.88;;;5.29;70.26
76994;BME280;66749;47.406;18.822;2023-03-01T00:49:05;101461.41;;;5.31;69.87
76994;BME280;66749;47.406;18.822;2023-03-01T00:49:37;101461.41;;;5.31;70.32
76994;BME280;66749;47.406;18.822;2023-03-01T00:50:09;101457.09;;;5.31;69.58
76994;BME280;66749;47.406;18.822;2023-03-01T00:50:41;101458.81;;;5.31;69.73
76994;BME280;66749;47.406;18.822;2023-03-01T00:51:24;101456.16;;;5.34;69.63
76994;BME280;66749;47.406;18.822;2023-03-01T00:51:57;101462.19;;;5.34;69.56
76994;BME280;66749;47.406;18.822;2023-03-01T00:52:28;101466.53;;;5.34;69.28
76994;BME280;66749;47.406;18.822;2023-03-01T00:53:00;101461.31;;;5.35;68.88
76994;BME280;66749;47.406;18.822;2023-03-01T00:53:32;101457.91;;;5.33;69.23
76994;BME280;66749;47.406;18.822;2023-03-01T00:54:04;101456.16;;;5.34;68.42
76994;BME280;66749;47.406;18.822;2023-03-01T00:54:36;101465.69;;;5.33;68.00
76994;BME280;66749;47.406;18.822;2023-03-01T00:55:07;101448.41;;;5.34;67.92
76994;BME280;66749;47.406;18.822;2023-03-01T00:55:39;101455.25;;;5.36;67.59
76994;BME280;66749;47.406;18.822;2023-03-01T00:56:13;101454.41;;;5.37;67.98
76994;BME280;66749;47.406;18.822;2023-03-01T00:56:45;101460.41;;;5.39;67.71
76994;BME280;66749;47.406;18.822;2023-03-01T00:57:17;101456.13;;;5.37;66.73
76994;BME280;66749;47.406;18.822;2023-03-01T00:57:48;101453.53;;;5.38;67.30
76994;BME280;66749;47.406;18.822;2023-03-01T00:58:20;101451.75;;;5.40;66.36
76994;BME280;66749;47.406;18.822;2023-03-01T00:58:52;101448.28;;;5.41;66.47
76994;BME280;66749;47.406;18.822;2023-03-01T00:59:23;101451.72;;;5.42;66.41
76994;BME280;66749;47.406;18.822;2023-03-01T00:59:55;101450.03;;;5.39;65.68
76994;BME280;66749;47.406;18.822;2023-03-01T01:00:27;101451.78;;;5.39;66.55
76994;BME280;66749;47.406;18.822;2023-03-01T01:00:59;101445.78;;;5.37;67.39
76994;BME280;66749;47.406;18.822;2023-03-01T01:01:31;101448.38;;;5.35;66.69
76994;BME280;66749;47.406;18.822;2023-03-01T01:02:03;101444.09;;;5.34;67.90
76994;BME280;66749;47.406;18.822;2023-03-01T01:02:35;101444.97;;;5.33;68.05
76994;BME280;66749;47.406;18.822;2023-03-01T01:03:07;101446.72;;;5.33;68.16
76994;BME280;66749;47.406;18.822;2023-03-01T01:03:38;101448.41;;;5.34;67.89
76994;BME280;66749;47.406;18.822;2023-03-01T01:04:12;101444.09;;;5.34;68.10
76994;BME280;66749;47.406;18.822;2023-03-01T01:04:45;101445.84;;;5.32;68.45
76994;BME280;66749;47.406;18.822;2023-03-01T01:05:16;101442.44;;;5.30;69.06
76994;BME280;66749;47.406;18.822;2023-03-01T01:05:52;101442.41;;;5.32;68.76
76994;BME280;66749;47.406;18.822;2023-03-01T01:06:48;101449.28;;;5.33;69.60
76994;BME280;66749;47.406;18.822;2023-03-01T01:07:18;101445.03;;;5.30;69.13
76994;BME280;66749;47.406;18.822;2023-03-01T01:07:51;101444.16;;;5.31;68.60
76994;BME280;66749;47.406;18.822;2023-03-01T01:08:23;101442.44;;;5.30;68.68
76994;BME280;66749;47.406;18.822;2023-03-01T01:08:55;101438.16;;;5.27;69.06
76994;BME280;66749;47.406;18.822;2023-03-01T01:09:27;101439.94;;;5.25;69.50
76994;BME280;66749;47.406;18.822;2023-03-01T01:09:59;101449.38;;;5.26;68.98
76994;BME280;66749;47.406;18.822;2023-03-01T01:10:30;101445.91;;;5.27;69.43
76994;BME280;66749;47.406;18.822;2023-03-01T01:11:02;101439.91;;;5.27;69.16
76994;BME280;66749;47.406;18.822;2023-03-01T01:11:34;101445.06;;;5.27;69.80
76994;BME280;66749;47.406;18.822;2023-03-01T01:12:07;101440.75;;;5.27;69.07
76994;BME280;66749;47.406;18.822;2023-03-01T01:12:39;101440.75;;;5.27;69.23
76994;BME280;66749;47.406;18.822;2023-03-01T01:13:11;101444.25;;;5.25;69.24
76994;BME280;66749;47.406;18.822;2023-03-01T01:13:46;101445.97;;;5.24;69.12
76994;BME280;66749;47.406;18.822;2023-03-01T01:14:18;101440.81;;;5.24;69.89
76994;BME280;66749;47.406;18.822;2023-03-01T01:14:50;101433.03;;;5.24;69.32
76994;BME280;66749;47.406;18.822;2023-03-01T01:15:22;101439.13;;;5.22;70.14
76994;BME280;66749;47.406;18.822;2023-03-01T01:15:53;101432.28;;;5.18;69.93
76994;BME280;66749;47.406;18.822;2023-03-01T01:16:27;101436.56;;;5.20;69.14
76994;BME280;66749;47.406;18.822;2023-03-01T01:16:59;101441.72;;;5.20;69.03
76994;BME280;66749;47.406;18.822;2023-03-01T01:17:31;101436.59;;;5.19;68.93
76994;BME280;66749;47.406;18.822;2023-03-01T01:18:03;101431.47;;;5.16;69.13
76994;BME280;66749;47.406;18.822;2023-03-01T01:18:35;101434.94;;;5.15;69.72
76994;BME280;66749;47.406;18.822;2023-03-01T01:19:07;101426.31;;;5.16;69.09
76994;BME280;66749;47.406;18.822;2023-03-01T01:19:39;101437.50;;;5.16;68.98
76994;BME280;66749;47.406;18.822;2023-03-01T01:20:11;101435.81;;;5.15;69.53
76994;BME280;66749;47.406;18.822;2023-03-01T01:20:43;101436.66;;;5.16;69.24
76994;BME280;66749;47.406;18.822;2023-03-01T01:21:17;101435.78;;;5.17;69.41
76994;BME280;66749;47.406;18.822;2023-03-01T01:21:49;101438.28;;;5.20;68.64
76994;BME280;66749;47.406;18.822;2023-03-01T01:22:21;101433.13;;;5.20;69.06
76994;BME280;66749;47.406;18.822;2023-03-01T01:22:53;101431.38;;;5.22;69.28
76994;BME280;66749;47.406;18.822;2023-03-01T01:23:25;101432.19;;;5.24;69.15
76994;BME280;66749;47.406;18.822;2023-03-01T01:23:57;101440.84;;;5.23;69.50
76994;BME280;66749;47.406;18.822;2023-03-01T01:24:29;101442.56;;;5.22;69.41
76994;BME280;66749;47.406;18.822;2023-03-01T01:25:01;101432.25;;;5.19;69.04
76994;BME280;66749;47.406;18.822;2023-03-01T01:25:35;101432.19;;;5.24;69.48
76994;BME280;66749;47.406;18.822;2023-03-01T01:26:29;101433.00;;;5.26;69.12
76994;BME280;66749;47.406;18.822;2023-03-01T01:27:01;101433.03;;;5.24;69.52
76994;BME280;66749;47.406;18.822;2023-03-01T01:27:33;101434.72;;;5.27;68.92
76994;BME280;66749;47.406;18.822;2023-03-01T01:28:05;101431.25;;;5.28;69.09
76994;BME280;66749;47.406;18.822;2023-03-01T01:28:37;101424.34;;;5.28;68.78
76994;BME280;66749;47.406;18.822;2023-03-01T01:29:09;101432.97;;;5.29;68.33
76994;BME280;66749;47.406;18.822;2023-03-01T01:29:41;101427.81;;;5.27;68.72
76994;BME280;66749;47.406;18.822;2023-03-01T01:30:13;101425.22;;;5.27;69.41
76994;BME280;66749;47.406;18.822;2023-03-01T01:30:45;101429.53;;;5.27;68.97
76994;BME280;66749;47.406;18.822;2023-03-01T01:31:17;101424.44;;;5.24;68.66
76994;BME280;66749;47.406;18.822;2023-03-01T01:31:49;101425.25;;;5.26;69.28
76994;BME280;66749;47.406;18.822;2023-03-01T01:32:22;101420.06;;;5.26;68.44
76994;BME280;66749;47.406;18.822;2023-03-01T01:32:57;101421.78;;;5.27;68.92
76994;BME280;66749;47.406;18.822;2023-03-01T01:33:28;101424.41;;;5.25;69.08
76994;BME280;66749;47.406;18.822;2023-03-01T01:34:02;101427.84;;;5.26;68.67
76994;BME280;66749;47.406;18.822;2023-03-01T01:34:34;101420.94;;;5.26;68.89
76994;BME280;66749;47.406;18.822;2023-03-01T01:35:05;101421.81;;;5.25;69.20
76994;BME280;66749;47.406;18.822;2023-03-01T01:35:37;101414.97;;;5.23;69.73
76994;BME280;66749;47.406;18.822;2023-03-01T01:36:09;101425.31;;;5.23;69.75
76994;BME280;66749;47.406;18.822;2023-03-01T01:36:42;101420.13;;;5.23;70.41
76994;BME280;66749;47.406;18.822;2023-03-01T01:37:14;101415.84;;;5.20;70.23
76994;BME280;66749;47.406;18.822;2023-03-01T01:37:45;101425.41;;;5.17;70.52
76994;BME280;66749;47.406;18.822;2023-03-01T01:38:17;101414.19;;;5.18;69.84
76994;BME280;66749;47.406;18.822;2023-03-01T01:38:49;101421.91;;;5.19;70.24
76994;BME280;66749;47.406;18.822;2023-03-01T01:39:21;101418.47;;;5.19;70.09
76994;BME280;66749;47.406;18.822;2023-03-01T01:39:53;101415.91;;;5.17;70.02
76994;BME280;66749;47.406;18.822;2023-03-01T01:40:25;101415.91;;;5.17;70.47
76994;BME280;66749;47.406;18.822;2023-03-01T01:40:56;101415.94;;;5.16;69.92
76994;BME280;66749;47.406;18.822;2023-03-01T01:41:28;101421.13;;;5.16;70.17
76994;BME280;66749;47.406;18.822;2023-03-01T01:42:01;101424.56;;;5.16;70.30
76994;BME280;66749;47.406;18.822;2023-03-01T01:42:33;101417.66;;;5.17;70.46
76994;BME280;66749;47.406;18.822;2023-03-01T01:43:04;101419.38;;;5.16;69.70
76994;BME280;66749;47.406;18.822;2023-03-01T01:43:44;101415.09;;;5.15;70.54
76994;BME280;66749;47.406;18.822;2023-03-01T01:45:59;101420.19;;;5.20;69.80
76994;BME280;66749;47.406;18.822;2023-03-01T01:46:37;101409.00;;;5.18;69.42
76994;BME280;66749;47.406;18.822;2023-03-01T01:47:17;101409.88;;;5.18;70.71
76994;BME280;66749;47.406;18.822;2023-03-01T01:47:52;101408.09;;;5.20;70.10
76994;BME280;66749;47.406;18.822;2023-03-01T01:48:32;101413.25;;;5.20;69.85
76994;BME280;66749;47.406;18.822;2023-03-01T01:49:23;101411.53;;;5.22;69.14
76994;BME280;66749;47.406;18.822;2023-03-01T01:49:56;101415.00;;;5.21;69.06
76994;BME280;66749;47.406;18.822;2023-03-01T01:50:29;101415.84;;;5.22;69.31
76994;BME280;66749;47.406;18.822;2023-03-01T01:51:21;101409.00;;;5.18;69.34
76994;BME280;66749;47.406;18.822;2023-03-01T01:52:00;101406.47;;;5.16;69.02
76994;BME280;66749;47.406;18.822;2023-03-01T01:52:37;101408.16;;;5.17;69.17
76994;BME280;66749;47.406;18.822;2023-03-01T01:53:13;101405.56;;;5.17;69.18
76994;BME280;66749;47.406;18.822;2023-03-01T01:53:52;101412.44;;;5.18;69.10
76994;BME280;66749;47.406;18.822;2023-03-01T01:54:30;101402.13;;;5.17;68.53
76994;BME280;66749;47.406;18.822;2023-03-01T01:55:08;101398.66;;;5.18;68.64
76994;BME280;66749;47.406;18.822;2023-03-01T01:55:46;101401.19;;;5.21;68.85
76994;BME280;66749;47.406;18.822;2023-03-01T01:56:20;101400.31;;;5.20;68.45
76994;BME280;66749;47.406;18.822;2023-03-01T01:56:56;101400.38;;;5.19;68.57
76994;BME280;66749;47.406;18.822;2023-03-01T01:57:54;101397.81;;;5.17;68.60
76994;BME280;66749;47.406;18.822;2023-03-01T01:58:29;101396.13;;;5.15;69.14
76994;BME280;66749;47.406;18.822;2023-03-01T01:59:02;101397.84;;;5.16;69.01
76994;BME280;66749;47.406;18.822;2023-03-01T01:59:33;101391.78;;;5.17;68.75
76994;BME280;66749;47.406;18.822;2023-03-01T02:00:11;101400.38;;;5.19;68.49
76994;BME280;66749;47.406;18.822;2023-03-01T02:00:43;101388.31;;;5.18;69.14
76994;BME280;66749;47.406;18.822;2023-03-01T02:01:15;101393.56;;;5.15;68.77
76994;BME280;66749;47.406;18.822;2023-03-01T02:01:46;101393.59;;;5.12;69.12
76994;BME280;66749;47.406;18.822;2023-03-01T02:02:19;101388.41;;;5.12;68.88
76994;BME280;66749;47.406;18.822;2023-03-01T02:02:56;101382.41;;;5.10;69.58
76994;BME280;66749;47.406;18.822;2023-03-01T02:03:32;101388.38;;;5.15;68.75
76994;BME280;66749;47.406;18.822;2023-03-01T02:04:09;101386.63;;;5.15;69.44
76994;BME280;66749;47.406;18.822;2023-03-01T02:04:41;101381.47;;;5.14;69.28
76994;BME280;66749;47.406;18.822;2023-03-01T02:06:48;101388.38;;;5.15;69.63
76994;BME280;66749;47.406;18.822;2023-03-01T02:07:23;101388.38;;;5.13;70.04
76994;BME280;66749;47.406;18.822;2023-03-01T02:07:56;101389.22;;;5.14;70.34
76994;BME280;66749;47.406;18.822;2023-03-01T02:08:32;101385.78;;;5.13;70.25
76994;BME280;66749;47.406;18.822;2023-03-01T02:09:08;101388.38;;;5.15;69.80
76994;BME280;66749;47.406;18.822;2023-03-01T02:09:47;101390.97;;;5.15;70.36
76994;BME280;66749;47.406;18.822;2023-03-01T02:10:21;101390.97;;;5.13;70.26
76994;BME280;66749;47.406;18.822;2023-03-01T02:10:55;101381.50;;;5.12;69.96
76994;BME280;66749;47.406;18.822;2023-03-01T02:11:29;101385.81;;;5.12;69.89
76994;BME280;66749;47.406;18.822;2023-03-01T02:12:02;101389.22;;;5.14;69.98
76994;BME280;66749;47.406;18.822;2023-03-01T02:12:36;101391.81;;;5.14;70.36
76994;BME280;66749;47.406;18.822;2023-03-01T02:13:10;101393.56;;;5.15;70.43
76994;BME280;66749;47.406;18.822;2023-03-01T02:13:42;101391.00;;;5.12;70.80
76994;BME280;66749;47.406;18.822;2023-03-01T02:14:15;101385.91;;;5.07;70.79
76994;BME280;66749;47.406;18.822;2023-03-01T02:14:47;101390.25;;;5.05;70.70
76994;BME280;66749;47.406;18.822;2023-03-01T02:15:19;101392.84;;;5.05;70.34
76994;BME280;66749;47.406;18.822;2023-03-01T02:15:51;101393.75;;;5.03;70.32
76994;BME280;66749;47.406;18.822;2023-03-01T02:16:22;101389.50;;;5.00;70.00
76994;BME280;66749;47.406;18.822;2023-03-01T02:16:54;101391.16;;;5.03;69.71
76994;BME280;66749;47.406;18.822;2023-03-01T02:17:26;101389.44;;;5.03;69.60
76994;BME280;66749;47.406;18.822;2023-03-01T02:17:59;101391.22;;;4.99;69.69
76994;BME280;66749;47.406;18.822;2023-03-01T02:18:31;101390.34;;;5.00;68.99
76994;BME280;66749;47.406;18.822;2023-03-01T02:19:04;101399.00;;;4.99;68.64
76994;BME280;66749;47.406;18.822;2023-03-01T02:20:27;101398.94;;;5.03;68.92
76994;BME280;66749;47.406;18.822;2023-03-01T02:22:31;101401.47;;;5.04;69.49
76994;BME280;66749;47.406;18.822;2023-03-01T02:22:38;101397.13;;;5.06;69.08
76994;BME280;66749;47.406;18.822;2023-03-01T02:23:10;101401.44;;;5.07;68.48
76994;BME280;66749;47.406;18.822;2023-03-01T02:23:42;101398.84;;;5.06;68.61
76994;BME280;66749;47.406;18.822;2023-03-01T02:24:33;101395.41;;;5.07;68.95
76994;BME280;66749;47.406;18.822;2023-03-01T02:26:02;101398.84;;;5.06;69.44
76994;BME280;66749;47.406;18.822;2023-03-01T02:26:45;101395.41;;;5.07;69.92
76994;BME280;66749;47.406;18.822;2023-03-01T02:27:22;101395.44;;;5.04;70.49
76994;BME280;66749;47.406;18.822;2023-03-01T02:28:47;101398.88;;;5.04;70.63
76994;BME280;66749;47.406;18.822;2023-03-01T02:29:20;101395.44;;;5.04;70.59
76994;BME280;66749;47.406;18.822;2023-03-01T02:29:52;101391.97;;;5.05;71.37
76994;BME280;66749;47.406;18.822;2023-03-01T02:30:25;101390.38;;;4.97;71.22
76994;BME280;66749;47.406;18.822;2023-03-01T02:30:57;101390.38;;;4.97;70.78
76994;BME280;66749;47.406;18.822;2023-03-01T02:31:49;101389.50;;;5.00;70.63
76994;BME280;66749;47.406;18.822;2023-03-01T02:32:22;101386.09;;;4.96;71.31
76994;BME280;66749;47.406;18.822;2023-03-01T02:32:58;101385.22;;;4.97;71.09
76994;BME280;66749;47.406;18.822;2023-03-01T02:33:38;101380.91;;;4.96;70.73
76994;BME280;66749;47.406;18.822;2023-03-01T02:34:17;101379.22;;;4.95;71.31
76994;BME280;66749;47.406;18.822;2023-03-01T02:34:53;101376.63;;;4.95;71.33
76994;BME280;66749;47.406;18.822;2023-03-01T02:35:27;101378.44;;;4.92;72.13
76994;BME280;66749;47.406;18.822;2023-03-01T02:36:00;101380.16;;;4.91;71.57
76994;BME280;66749;47.406;18.822;2023-03-01T02:36:52;101381.00;;;4.92;71.09
76994;BME280;66749;47.406;18.822;2023-03-01T02:37:26;101384.44;;;4.92;71.06
76994;BME280;66749;47.406;18.822;2023-03-01T02:38:00;101378.41;;;4.93;70.64
76994;BME280;66749;47.406;18.822;2023-03-01T02:38:33;101377.50;;;4.94;70.93
76994;BME280;66749;47.406;18.822;2023-03-01T02:39:07;101377.53;;;4.93;70.61
76994;BME280;66749;47.406;18.822;2023-03-01T02:39:48;101381.00;;;4.90;71.66
76994;BME280;66749;47.406;18.822;2023-03-01T02:40:22;101376.72;;;4.89;71.48
76994;BME280;66749;47.406;18.822;2023-03-01T02:40:55;101374.09;;;4.92;71.25
76994;BME280;66749;47.406;18.822;2023-03-01T02:41:33;101381.88;;;4.91;71.42
76994;BME280;66749;47.406;18.822;2023-03-01T02:42:06;101368.94;;;4.92;70.24
76994;BME280;66749;47.406;18.822;2023-03-01T02:42:58;101368.09;;;4.92;69.46
76994;BME280;66749;47.406;18.822;2023-03-01T02:43:31;101374.94;;;4.94;69.14
76994;BME280;66749;47.406;18.822;2023-03-01T02:44:05;101368.88;;;4.95;69.18
76994;BME280;66749;47.406;18.822;2023-03-01T02:44:37;101374.91;;;4.96;69.02
76994;BME280;66749;47.406;18.822;2023-03-01T02:45:09;101373.16;;;4.96;69.19
76994;BME280;66749;47.406;18.822;2023-03-01T02:45:52;101380.03;;;4.97;69.37
76994;BME280;66749;47.406;18.822;2023-03-01T02:46:25;101374.84;;;4.97;69.92
76994;BME280;66749;47.406;18.822;2023-03-01T02:47:01;101373.16;;;4.96;69.35
76994;BME280;66749;47.406;18.822;2023-03-01T02:47:34;101378.34;;;4.96;69.52
76994;BME280;66749;47.406;18.822;2023-03-01T02:48:06;101373.22;;;4.93;69.29
76994;BME280;66749;47.406;18.822;2023-03-01T02:48:47;101368.09;;;4.90;68.69
76994;BME280;66749;47.406;18.822;2023-03-01T02:49:27;101369.84;;;4.88;68.14
76994;BME280;66749;47.406;18.822;2023-03-01T02:50:00;101370.66;;;4.92;68.32
76994;BME280;66749;47.406;18.822;2023-03-01T02:52:56;101372.38;;;4.93;67.94
76994;BME280;66749;47.406;18.822;2023-03-01T02:55:39;101361.09;;;4.95;68.47
76994;BME280;66749;47.406;18.822;2023-03-01T02:56:11;101365.44;;;4.95;68.57
76994;BME280;66749;47.406;18.822;2023-03-01T02:56:45;101361.16;;;4.92;68.48
76994;BME280;66749;47.406;18.822;2023-03-01T02:57:22;101363.72;;;4.94;69.10
76994;BME280;66749;47.406;18.822;2023-03-01T02:57:56;101363.66;;;4.97;68.68
76994;BME280;66749;47.406;18.822;2023-03-01T02:58:28;101363.63;;;4.98;69.01
76994;BME280;66749;47.406;18.822;2023-03-01T02:59:00;101361.03;;;4.98;69.11
76994;BME280;66749;47.406;18.822;2023-03-01T02:59:35;101364.50;;;4.99;68.97
76994;BME280;66749;47.406;18.822;2023-03-01T03:00:21;101363.63;;;5.00;69.63
76994;BME280;66749;47.406;18.822;2023-03-01T03:00:55;101369.66;;;5.00;69.13
76994;BME280;66749;47.406;18.822;2023-03-01T03:01:28;101367.91;;;5.01;70.02
76994;BME280;66749;47.406;18.822;2023-03-01T03:02:29;101359.31;;;5.00;70.25
76994;BME280;66749;47.406;18.822;2023-03-01T03:03:07;101366.22;;;5.00;70.89
76994;BME280;66749;47.406;18.822;2023-03-01T03:03:39;101366.22;;;5.00;70.84
76994;BME280;66749;47.406;18.822;2023-03-01T03:04:14;101358.47;;;5.00;70.26
76994;BME280;66749;47.406;18.822;2023-03-01T03:04:49;101365.28;;;5.03;70.32
76994;BME280;66749;47.406;18.822;2023-03-01T03:05:23;101360.16;;;5.01;70.28
76994;BME280;66749;47.406;18.822;2023-03-01T03:05:55;101364.47;;;5.00;70.35
76994;BME280;66749;47.406;18.822;2023-03-01T03:06:27;101364.47;;;5.00;70.73
76994;BME280;66749;47.406;18.822;2023-03-01T03:06:59;101369.66;;;5.00;71.17
76994;BME280;66749;47.406;18.822;2023-03-01T03:07:30;101361.03;;;5.00;71.35
76994;BME280;66749;47.406;18.822;2023-03-01T03:08:03;101363.59;;;5.01;70.64
76994;BME280;66749;47.406;18.822;2023-03-01T03:08:35;101366.19;;;5.01;71.53